sensor_id;sensor_type;location;lat;lon;timestamp;temperature;humidity
50067;DHT22;35952;52.524;13.340;2023-03-01T00:01:29;0.10;99.90
50067;DHT22;35952;52.524;13.340;2023-03-01T00:03:56;0.00;99.90
50067;DHT22;35952;52.524;13.340;2023-03-01T00:06:22;0.00;99.90
50067;DHT22;35952;52.524;13.340;2023-03-01T00:08:48;0.00;99.90
50067;DHT22;35952;52.524;13.340;2023-03-01T00:11:19;0.10;99.90
50067;DHT22;35952;52.524;13.340;2023-03-01T00:13:47;0.10;99.90
50067;DHT22;35952;52.524;13.340;2023-03-01T00:16:36;0.00;99.90
50067;DHT22;35952;52.524;13.340;2023-03-01T00:19:00;0.00;99.90
50067;DHT22;35952;52.524;13.340;2023-03-01T00:21:26;-0.10;99.90
50067;DHT22;35952;52.524;13.340;2023-03-01T00:23:53;-0.10;99.90
50067;DHT22;35952;52.524;13.340;2023-03-01T00:26:19;-0.10;99.90
50067;DHT22;35952;52.524;13.340;2023-03-01T00:28:46;-0.10;99.90
50067;DHT22;35952;52.524;13.340;2023-03-01T00:31:15;-0.10;99.90
50067;DHT22;35952;52.524;13.340;2023-03-01T00:33:41;-0.10;99.90
50067;DHT22;35952;52.524;13.340;2023-03-01T00:36:07;-0.10;99.90
50067;DHT22;35952;52.524;13.340;2023-03-01T00:38:41;-0.20;99.90
50067;DHT22;35952;52.524;13.340;2023-03-01T00:41:09;-0.10;99.90
50067;DHT22;35952;52.524;13.340;2023-03-01T00:43:35;-0.10;99.90
50067;DHT22;35952;52.524;13.340;2023-03-01T00:46:06;0.10;99.90
50067;DHT22;35952;52.524;13.340;2023-03-01T00:48:32;0.10;99.90
50067;DHT22;35952;52.524;13.340;2023-03-01T00:51:07;0.10;99.90
50067;DHT22;35952;52.524;13.340;2023-03-01T00:53:33;0.10;99.90
50067;DHT22;35952;52.524;13.340;2023-03-01T00:55:59;0.30;99.90
50067;DHT22;35952;52.524;13.340;2023-03-01T00:58:26;0.40;99.90
50067;DHT22;35952;52.524;13.340;2023-03-01T01:00:51;0.40;99.90
50067;DHT22;35952;52.524;13.340;2023-03-01T01:03:18;0.30;99.90
50067;DHT22;35952;52.524;13.340;2023-03-01T01:05:44;0.10;99.90
50067;DHT22;35952;52.524;13.340;2023-03-01T01:08:09;0.00;99.90
50067;DHT22;35952;52.524;13.340;2023-03-01T01:10:35;-0.10;99.90
50067;DHT22;35952;52.524;13.340;2023-03-01T01:13:00;-0.20;99.90
50067;DHT22;35952;52.524;13.340;2023-03-01T01:15:26;-0.30;99.90
50067;DHT22;35952;52.524;13.340;2023-03-01T01:17:52;-0.30;99.90
50067;DHT22;35952;52.524;13.340;2023-03-01T01:20:17;-0.30;99.90
50067;DHT22;35952;52.524;13.340;2023-03-01T01:22:43;-0.30;99.90
50067;DHT22;35952;52.524;13.340;2023-03-01T01:25:09;-0.20;99.90
50067;DHT22;35952;52.524;13.340;2023-03-01T01:27:34;-0.20;99.90
50067;DHT22;35952;52.524;13.340;2023-03-01T01:30:00;-0.30;99.90
50067;DHT22;35952;52.524;13.340;2023-03-01T01:32:25;-0.30;99.90
50067;DHT22;35952;52.524;13.340;2023-03-01T01:34:51;-0.30;99.90
50067;DHT22;35952;52.524;13.340;2023-03-01T01:37:16;-0.20;99.90
50067;DHT22;35952;52.524;13.340;2023-03-01T01:39:42;-0.30;99.90
50067;DHT22;35952;52.524;13.340;2023-03-01T01:42:15;-0.30;99.90
50067;DHT22;35952;52.524;13.340;2023-03-01T01:44:44;-0.20;99.90
50067;DHT22;35952;52.524;13.340;2023-03-01T01:47:15;-0.20;99.90
50067;DHT22;35952;52.524;13.340;2023-03-01T01:49:55;-0.30;99.90
50067;DHT22;35952;52.524;13.340;2023-03-01T01:52:34;-0.30;99.90
50067;DHT22;35952;52.524;13.340;2023-03-01T01:55:06;-0.40;99.90
50067;DHT22;35952;52.524;13.340;2023-03-01T01:57:39;-0.40;99.90
50067;DHT22;35952;52.524;13.340;2023-03-01T02:00:12;-0.40;99.90
50067;DHT22;35952;52.524;13.340;2023-03-01T02:02:38;-0.40;99.90
50067;DHT22;35952;52.524;13.340;2023-03-01T02:05:12;-0.40;99.90
50067;DHT22;35952;52.524;13.340;2023-03-01T02:07:41;-0.40;99.90
50067;DHT22;35952;52.524;13.340;2023-03-01T02:10:08;-0.50;99.90
50067;DHT22;35952;52.524;13.340;2023-03-01T02:12:34;-0.50;99.90
50067;DHT22;35952;52.524;13.340;2023-03-01T02:14:59;-0.60;99.90
50067;DHT22;35952;52.524;13.340;2023-03-01T02:17:25;-0.60;99.90
50067;DHT22;35952;52.524;13.340;2023-03-01T02:22:28;-0.50;99.90
50067;DHT22;35952;52.524;13.340;2023-03-01T02:28:08;-0.60;99.90
50067;DHT22;35952;52.524;13.340;2023-03-01T02:30:36;-0.60;99.90
50067;DHT22;35952;52.524;13.340;2023-03-01T02:33:03;-0.70;99.90
50067;DHT22;35952;52.524;13.340;2023-03-01T02:35:33;-0.70;99.90
50067;DHT22;35952;52.524;13.340;2023-03-01T02:38:00;-0.70;99.90
50067;DHT22;35952;52.524;13.340;2023-03-01T02:40:29;-0.80;99.90
50067;DHT22;35952;52.524;13.340;2023-03-01T02:42:57;-0.70;99.90
50067;DHT22;35952;52.524;13.340;2023-03-01T02:45:24;-0.70;99.90
50067;DHT22;35952;52.524;13.340;2023-03-01T02:47:49;-0.70;99.90
50067;DHT22;35952;52.524;13.340;2023-03-01T02:53:09;-0.80;99.90
50067;DHT22;35952;52.524;13.340;2023-03-01T02:55:36;-0.80;99.90
50067;DHT22;35952;52.524;13.340;2023-03-01T02:58:03;-0.80;99.90
50067;DHT22;35952;52.524;13.340;2023-03-01T03:00:47;-0.80;99.90
50067;DHT22;35952;52.524;13.340;2023-03-01T03:03:16;-0.80;99.90
50067;DHT22;35952;52.524;13.340;2023-03-01T03:05:41;-0.90;99.90
50067;DHT22;35952;52.524;13.340;2023-03-01T03:08:07;-0.90;99.90
50067;DHT22;35952;52.524;13.340;2023-03-01T03:10:37;-0.80;99.90
50067;DHT22;35952;52.524;13.340;2023-03-01T03:13:06;-0.80;99.90
50067;DHT22;35952;52.524;13.340;2023-03-01T03:15:32;-0.80;99.90
50067;DHT22;35952;52.524;13.340;2023-03-01T03:18:02;-0.90;99.90
50067;DHT22;35952;52.524;13.340;2023-03-01T03:20:28;-0.90;99.90
50067;DHT22;35952;52.524;13.340;2023-03-01T03:22:56;-0.90;99.90
50067;DHT22;35952;52.524;13.340;2023-03-01T03:25:22;-0.90;99.90
50067;DHT22;35952;52.524;13.340;2023-03-01T03:27:49;-1.00;99.90
50067;DHT22;35952;52.524;13.340;2023-03-01T03:30:23;-1.00;99.90
50067;DHT22;35952;52.524;13.340;2023-03-01T03:32:49;-1.00;99.90
50067;DHT22;35952;52.524;13.340;2023-03-01T03:35:23;-1.00;99.90
50067;DHT22;35952;52.524;13.340;2023-03-01T03:37:50;-0.90;99.90
50067;DHT22;35952;52.524;13.340;2023-03-01T03:40:36;-0.90;99.90
50067;DHT22;35952;52.524;13.340;2023-03-01T03:43:04;-0.90;99.90
50067;DHT22;35952;52.524;13.340;2023-03-01T03:45:31;-1.00;99.90
50067;DHT22;35952;52.524;13.340;2023-03-01T03:47:59;-0.90;99.90
50067;DHT22;35952;52.524;13.340;2023-03-01T03:50:24;-0.80;99.90
50067;DHT22;35952;52.524;13.340;2023-03-01T03:52:50;-0.80;99.90
50067;DHT22;35952;52.524;13.340;2023-03-01T03:55:16;-0.80;99.90
50067;DHT22;35952;52.524;13.340;2023-03-01T03:57:45;-0.90;99.90
50067;DHT22;35952;52.524;13.340;2023-03-01T04:00:20;-0.90;99.90
50067;DHT22;35952;52.524;13.340;2023-03-01T04:02:47;-1.00;99.90
50067;DHT22;35952;52.524;13.340;2023-03-01T04:05:14;-1.00;99.90
50067;DHT22;35952;52.524;13.340;2023-03-01T04:07:40;-1.00;99.90
50067;DHT22;35952;52.524;13.340;2023-03-01T04:10:10;-1.10;99.90
50067;DHT22;35952;52.524;13.340;2023-03-01T04:12:36;-1.10;99.90
50067;DHT22;35952;52.524;13.340;2023-03-01T04:15:06;-1.20;99.90
50067;DHT22;35952;52.524;13.340;2023-03-01T04:17:39;-1.20;99.90
50067;DHT22;35952;52.524;13.340;2023-03-01T04:20:05;-1.10;99.90
50067;DHT22;35952;52.524;13.340;2023-03-01T04:22:32;-1.10;99.90
50067;DHT22;35952;52.524;13.340;2023-03-01T04:24:58;-1.20;99.90
50067;DHT22;35952;52.524;13.340;2023-03-01T04:27:27;-1.20;99.90
50067;DHT22;35952;52.524;13.340;2023-03-01T04:29:52;-1.20;99.90
50067;DHT22;35952;52.524;13.340;2023-03-01T04:32:18;-1.20;99.90
50067;DHT22;35952;52.524;13.340;2023-03-01T04:34:43;-1.20;99.90
50067;DHT22;35952;52.524;13.340;2023-03-01T04:37:09;-1.10;99.90
50067;DHT22;35952;52.524;13.340;2023-03-01T04:39:34;-1.10;99.90
50067;DHT22;35952;52.524;13.340;2023-03-01T04:42:14;-1.10;99.90
50067;DHT22;35952;52.524;13.340;2023-03-01T04:44:40;-1.10;99.90
50067;DHT22;35952;52.524;13.340;2023-03-01T04:47:06;-1.10;99.90
50067;DHT22;35952;52.524;13.340;2023-03-01T04:49:31;-1.10;99.90
50067;DHT22;35952;52.524;13.340;2023-03-01T04:51:57;-1.10;99.90
50067;DHT22;35952;52.524;13.340;2023-03-01T04:54:32;-1.10;99.90
50067;DHT22;35952;52.524;13.340;2023-03-01T04:56:58;-1.20;99.90
50067;DHT22;35952;52.524;13.340;2023-03-01T04:59:24;-1.20;99.90
50067;DHT22;35952;52.524;13.340;2023-03-01T05:01:51;-1.20;99.90
50067;DHT22;35952;52.524;13.340;2023-03-01T05:04:17;-1.20;99.90
50067;DHT22;35952;52.524;13.340;2023-03-01T05:06:43;-1.20;99.90
50067;DHT22;35952;52.524;13.340;2023-03-01T05:09:09;-1.20;99.90
50067;DHT22;35952;52.524;13.340;2023-03-01T05:11:36;-1.20;99.90
50067;DHT22;35952;52.524;13.340;2023-03-01T05:14:03;-1.10;99.90
50067;DHT22;35952;52.524;13.340;2023-03-01T05:16:29;-1.10;99.90
50067;DHT22;35952;52.524;13.340;2023-03-01T05:18:56;-1.10;99.90
50067;DHT22;35952;52.524;13.340;2023-03-01T05:21:22;-1.10;99.90
50067;DHT22;35952;52.524;13.340;2023-03-01T05:23:47;-1.20;99.90
50067;DHT22;35952;52.524;13.340;2023-03-01T05:26:14;-1.10;99.90
50067;DHT22;35952;52.524;13.340;2023-03-01T05:28:40;-1.10;99.90
50067;DHT22;35952;52.524;13.340;2023-03-01T05:31:06;-0.90;99.90
50067;DHT22;35952;52.524;13.340;2023-03-01T05:33:38;-0.90;99.90
50067;DHT22;35952;52.524;13.340;2023-03-01T05:36:06;-1.00;99.90
50067;DHT22;35952;52.524;13.340;2023-03-01T05:38:32;-1.10;99.90
50067;DHT22;35952;52.524;13.340;2023-03-01T05:40:58;-1.10;99.90
50067;DHT22;35952;52.524;13.340;2023-03-01T05:43:23;-1.10;99.90
50067;DHT22;35952;52.524;13.340;2023-03-01T05:45:49;-1.20;99.90
50067;DHT22;35952;52.524;13.340;2023-03-01T05:48:14;-1.10;99.90
50067;DHT22;35952;52.524;13.340;2023-03-01T05:50:42;-1.10;99.90
50067;DHT22;35952;52.524;13.340;2023-03-01T05:53:17;-1.20;99.90
50067;DHT22;35952;52.524;13.340;2023-03-01T05:55:44;-1.10;99.90
50067;DHT22;35952;52.524;13.340;2023-03-01T05:58:21;-1.00;99.90
50067;DHT22;35952;52.524;13.340;2023-03-01T06:00:48;-1.00;99.90
50067;DHT22;35952;52.524;13.340;2023-03-01T06:03:15;-0.90;99.90
50067;DHT22;35952;52.524;13.340;2023-03-01T06:05:41;-0.80;99.90
50067;DHT22;35952;52.524;13.340;2023-03-01T06:08:09;-0.80;99.90
50067;DHT22;35952;52.524;13.340;2023-03-01T06:10:35;-0.90;99.90
50067;DHT22;35952;52.524;13.340;2023-03-01T06:13:00;-0.90;99.90
50067;DHT22;35952;52.524;13.340;2023-03-01T06:15:26;-0.90;99.90
50067;DHT22;35952;52.524;13.340;2023-03-01T06:17:53;-0.90;99.90
50067;DHT22;35952;52.524;13.340;2023-03-01T06:20:22;-0.90;99.90
50067;DHT22;35952;52.524;13.340;2023-03-01T06:22:48;-0.90;99.90
50067;DHT22;35952;52.524;13.340;2023-03-01T06:25:17;-0.80;99.90
50067;DHT22;35952;52.524;13.340;2023-03-01T06:27:44;-0.60;99.90
50067;DHT22;35952;52.524;13.340;2023-03-01T06:30:11;-0.60;99.90
50067;DHT22;35952;52.524;13.340;2023-03-01T06:32:38;-0.60;99.90
50067;DHT22;35952;52.524;13.340;2023-03-01T06:35:08;-0.60;99.90
50067;DHT22;35952;52.524;13.340;2023-03-01T06:37:34;-0.50;99.90
50067;DHT22;35952;52.524;13.340;2023-03-01T06:40:01;-0.40;99.90
50067;DHT22;35952;52.524;13.340;2023-03-01T06:42:32;-0.40;99.90
50067;DHT22;35952;52.524;13.340;2023-03-01T06:44:57;-0.30;99.90
50067;DHT22;35952;52.524;13.340;2023-03-01T06:47:23;-0.10;99.90
50067;DHT22;35952;52.524;13.340;2023-03-01T06:49:48;-0.10;99.90
50067;DHT22;35952;52.524;13.340;2023-03-01T06:52:14;0.00;99.90
50067;DHT22;35952;52.524;13.340;2023-03-01T06:54:39;0.20;99.90
50067;DHT22;35952;52.524;13.340;2023-03-01T06:57:05;0.20;99.90
50067;DHT22;35952;52.524;13.340;2023-03-01T06:59:30;0.20;99.90
50067;DHT22;35952;52.524;13.340;2023-03-01T07:01:56;0.30;99.90
50067;DHT22;35952;52.524;13.340;2023-03-01T07:04:22;0.40;99.90
50067;DHT22;35952;52.524;13.340;2023-03-01T07:06:47;0.40;99.90
50067;DHT22;35952;52.524;13.340;2023-03-01T07:09:19;0.50;99.90
50067;DHT22;35952;52.524;13.340;2023-03-01T07:11:47;0.40;99.90
50067;DHT22;35952;52.524;13.340;2023-03-01T07:14:12;0.40;99.90
50067;DHT22;35952;52.524;13.340;2023-03-01T07:16:38;0.50;99.90
50067;DHT22;35952;52.524;13.340;2023-03-01T07:19:03;0.50;99.90
50067;DHT22;35952;52.524;13.340;2023-03-01T07:21:30;0.50;99.90
50067;DHT22;35952;52.524;13.340;2023-03-01T07:23:56;0.60;99.90
50067;DHT22;35952;52.524;13.340;2023-03-01T07:26:21;0.60;99.90
50067;DHT22;35952;52.524;13.340;2023-03-01T07:28:47;0.60;99.90
50067;DHT22;35952;52.524;13.340;2023-03-01T07:31:12;0.50;99.90
50067;DHT22;35952;52.524;13.340;2023-03-01T07:33:38;0.50;99.90
50067;DHT22;35952;52.524;13.340;2023-03-01T07:36:04;0.60;99.90
50067;DHT22;35952;52.524;13.340;2023-03-01T07:38:30;0.60;99.90
50067;DHT22;35952;52.524;13.340;2023-03-01T07:41:00;0.70;99.90
50067;DHT22;35952;52.524;13.340;2023-03-01T07:43:28;0.70;99.90
50067;DHT22;35952;52.524;13.340;2023-03-01T07:45:53;0.70;99.90
50067;DHT22;35952;52.524;13.340;2023-03-01T07:48:19;0.70;99.90
50067;DHT22;35952;52.524;13.340;2023-03-01T07:50:44;0.80;99.90
50067;DHT22;35952;52.524;13.340;2023-03-01T07:53:10;0.80;99.90
50067;DHT22;35952;52.524;13.340;2023-03-01T07:55:36;0.80;99.90
50067;DHT22;35952;52.524;13.340;2023-03-01T07:58:02;0.90;99.90
50067;DHT22;35952;52.524;13.340;2023-03-01T08:00:27;1.10;99.90
50067;DHT22;35952;52.524;13.340;2023-03-01T08:02:52;1.20;99.90
50067;DHT22;35952;52.524;13.340;2023-03-01T08:05:18;1.30;99.90
50067;DHT22;35952;52.524;13.340;2023-03-01T08:07:43;1.60;99.90
50067;DHT22;35952;52.524;13.340;2023-03-01T08:10:09;1.80;99.90
50067;DHT22;35952;52.524;13.340;2023-03-01T08:12:35;2.20;99.90
50067;DHT22;35952;52.524;13.340;2023-03-01T08:15:01;2.90;99.90
50067;DHT22;35952;52.524;13.340;2023-03-01T08:17:26;4.90;99.90
50067;DHT22;35952;52.524;13.340;2023-03-01T08:19:52;7.30;99.90
50067;DHT22;35952;52.524;13.340;2023-03-01T08:22:17;9.30;91.60
50067;DHT22;35952;52.524;13.340;2023-03-01T08:24:43;11.10;73.10
50067;DHT22;35952;52.524;13.340;2023-03-01T08:27:08;12.60;60.20
50067;DHT22;35952;52.524;13.340;2023-03-01T08:29:34;12.70;54.60
50067;DHT22;35952;52.524;13.340;2023-03-01T08:32:00;11.50;54.00
50067;DHT22;35952;52.524;13.340;2023-03-01T08:34:25;10.30;55.40
50067;DHT22;35952;52.524;13.340;2023-03-01T08:36:51;8.90;59.20
50067;DHT22;35952;52.524;13.340;2023-03-01T08:39:18;7.80;65.10
50067;DHT22;35952;52.524;13.340;2023-03-01T08:41:44;6.30;76.80
50067;DHT22;35952;52.524;13.340;2023-03-01T08:44:11;6.00;85.50
50067;DHT22;35952;52.524;13.340;2023-03-01T08:46:40;5.70;87.80
50067;DHT22;35952;52.524;13.340;2023-03-01T08:49:18;5.00;92.70
50067;DHT22;35952;52.524;13.340;2023-03-01T08:51:45;5.00;93.30
50067;DHT22;35952;52.524;13.340;2023-03-01T08:54:19;4.80;94.40
50067;DHT22;35952;52.524;13.340;2023-03-01T08:56:45;4.60;94.50
50067;DHT22;35952;52.524;13.340;2023-03-01T08:59:11;4.40;95.70
50067;DHT22;35952;52.524;13.340;2023-03-01T09:01:37;4.30;96.60
50067;DHT22;35952;52.524;13.340;2023-03-01T09:04:03;4.20;97.70
50067;DHT22;35952;52.524;13.340;2023-03-01T09:06:33;3.90;99.90
50067;DHT22;35952;52.524;13.340;2023-03-01T09:08:59;4.00;99.90
50067;DHT22;35952;52.524;13.340;2023-03-01T09:11:25;4.00;99.40
50067;DHT22;35952;52.524;13.340;2023-03-01T09:13:50;3.90;99.90
50067;DHT22;35952;52.524;13.340;2023-03-01T09:16:18;3.90;99.90
50067;DHT22;35952;52.524;13.340;2023-03-01T09:18:48;3.90;99.90
50067;DHT22;35952;52.524;13.340;2023-03-01T09:21:16;3.90;99.90
50067;DHT22;35952;52.524;13.340;2023-03-01T09:23:45;4.00;99.90
50067;DHT22;35952;52.524;13.340;2023-03-01T09:26:14;4.00;99.90
50067;DHT22;35952;52.524;13.340;2023-03-01T09:28:42;4.10;99.90
50067;DHT22;35952;52.524;13.340;2023-03-01T09:31:08;4.00;99.90
50067;DHT22;35952;52.524;13.340;2023-03-01T09:33:34;4.10;99.90
50067;DHT22;35952;52.524;13.340;2023-03-01T09:36:01;4.20;99.90
50067;DHT22;35952;52.524;13.340;2023-03-01T09:38:27;4.30;99.90
50067;DHT22;35952;52.524;13.340;2023-03-01T09:40:53;4.30;99.90
50067;DHT22;35952;52.524;13.340;2023-03-01T09:43:29;4.20;99.90
50067;DHT22;35952;52.524;13.340;2023-03-01T09:46:00;4.20;99.90
50067;DHT22;35952;52.524;13.340;2023-03-01T09:51:33;4.50;99.90
50067;DHT22;35952;52.524;13.340;2023-03-01T09:54:01;4.60;99.90
50067;DHT22;35952;52.524;13.340;2023-03-01T10:02:23;4.80;99.90
50067;DHT22;35952;52.524;13.340;2023-03-01T10:04:54;4.80;99.60
50067;DHT22;35952;52.524;13.340;2023-03-01T10:07:27;4.80;99.90
50067;DHT22;35952;52.524;13.340;2023-03-01T10:09:55;4.80;99.90
50067;DHT22;35952;52.524;13.340;2023-03-01T10:12:25;4.90;99.90
50067;DHT22;35952;52.524;13.340;2023-03-01T10:15:09;5.20;98.60
50067;DHT22;35952;52.524;13.340;2023-03-01T10:17:47;5.40;97.00
50067;DHT22;35952;52.524;13.340;2023-03-01T10:22:44;5.50;96.70
50067;DHT22;35952;52.524;13.340;2023-03-01T10:25:17;5.60;97.10
50067;DHT22;35952;52.524;13.340;2023-03-01T10:27:53;5.60;96.40
50067;DHT22;35952;52.524;13.340;2023-03-01T10:30:22;5.60;95.10
50067;DHT22;35952;52.524;13.340;2023-03-01T10:32:53;5.50;95.10
50067;DHT22;35952;52.524;13.340;2023-03-01T10:35:22;5.40;97.20
50067;DHT22;35952;52.524;13.340;2023-03-01T10:38:09;5.40;96.50
50067;DHT22;35952;52.524;13.340;2023-03-01T10:40:37;5.50;92.50
50067;DHT22;35952;52.524;13.340;2023-03-01T10:43:14;5.50;91.40
50067;DHT22;35952;52.524;13.340;2023-03-01T10:45:40;5.60;90.50
50067;DHT22;35952;52.524;13.340;2023-03-01T10:48:26;5.50;90.60
50067;DHT22;35952;52.524;13.340;2023-03-01T10:53:30;5.50;90.90
50067;DHT22;35952;52.524;13.340;2023-03-01T10:56:20;5.50;88.00
50067;DHT22;35952;52.524;13.340;2023-03-01T10:59:03;5.60;86.30
50067;DHT22;35952;52.524;13.340;2023-03-01T11:01:35;5.80;83.10
50067;DHT22;35952;52.524;13.340;2023-03-01T11:04:11;5.90;81.50
50067;DHT22;35952;52.524;13.340;2023-03-01T11:06:39;5.90;79.90
50067;DHT22;35952;52.524;13.340;2023-03-01T11:11:42;5.90;76.50
50067;DHT22;35952;52.524;13.340;2023-03-01T11:14:22;6.10;73.10
50067;DHT22;35952;52.524;13.340;2023-03-01T11:16:57;6.00;74.70
50067;DHT22;35952;52.524;13.340;2023-03-01T11:19:23;6.10;72.10
50067;DHT22;35952;52.524;13.340;2023-03-01T11:27:03;6.30;69.10
50067;DHT22;35952;52.524;13.340;2023-03-01T11:32:17;6.20;67.80
50067;DHT22;35952;52.524;13.340;2023-03-01T11:34:56;6.40;63.20
50067;DHT22;35952;52.524;13.340;2023-03-01T11:57:49;7.10;58.20
50067;DHT22;35952;52.524;13.340;2023-03-01T12:00:30;7.40;57.20
50067;DHT22;35952;52.524;13.340;2023-03-01T12:03:30;7.40;56.30
50067;DHT22;35952;52.524;13.340;2023-03-01T12:14:35;7.50;53.10
50067;DHT22;35952;52.524;13.340;2023-03-01T12:23:14;7.50;51.90
50067;DHT22;35952;52.524;13.340;2023-03-01T12:29:02;7.60;51.70
50067;DHT22;35952;52.524;13.340;2023-03-01T12:37:22;7.50;50.80
50067;DHT22;35952;52.524;13.340;2023-03-01T12:46:02;7.70;51.50
50067;DHT22;35952;52.524;13.340;2023-03-01T12:49:02;7.80;52.00
50067;DHT22;35952;52.524;13.340;2023-03-01T12:51:32;8.00;52.30
50067;DHT22;35952;52.524;13.340;2023-03-01T12:54:19;8.10;51.40
50067;DHT22;35952;52.524;13.340;2023-03-01T12:56:46;8.00;51.60
50067;DHT22;35952;52.524;13.340;2023-03-01T12:59:39;8.00;51.20
50067;DHT22;35952;52.524;13.340;2023-03-01T13:18:31;8.50;48.90
50067;DHT22;35952;52.524;13.340;2023-03-01T13:33:59;8.60;46.10
50067;DHT22;35952;52.524;13.340;2023-03-01T13:39:26;8.60;47.00
50067;DHT22;35952;52.524;13.340;2023-03-01T13:41:53;8.40;47.10
50067;DHT22;35952;52.524;13.340;2023-03-01T13:44:36;8.30;47.50
50067;DHT22;35952;52.524;13.340;2023-03-01T13:49:48;8.50;48.40
50067;DHT22;35952;52.524;13.340;2023-03-01T13:54:59;9.60;46.20
50067;DHT22;35952;52.524;13.340;2023-03-01T13:57:33;9.80;45.30
50067;DHT22;35952;52.524;13.340;2023-03-01T13:59:59;9.60;45.20
50067;DHT22;35952;52.524;13.340;2023-03-01T14:02:25;9.30;46.30
50067;DHT22;35952;52.524;13.340;2023-03-01T14:05:01;9.10;47.20
50067;DHT22;35952;52.524;13.340;2023-03-01T14:07:32;8.90;47.00
50067;DHT22;35952;52.524;13.340;2023-03-01T14:10:02;9.10;47.50
50067;DHT22;35952;52.524;13.340;2023-03-01T14:15:19;11.50;44.40
50067;DHT22;35952;52.524;13.340;2023-03-01T14:18:01;13.50;41.40
50067;DHT22;35952;52.524;13.340;2023-03-01T14:20:37;14.50;38.50
50067;DHT22;35952;52.524;13.340;2023-03-01T14:23:14;14.70;37.70
50067;DHT22;35952;52.524;13.340;2023-03-01T14:25:47;15.20;37.90
50067;DHT22;35952;52.524;13.340;2023-03-01T14:28:19;15.20;37.00
50067;DHT22;35952;52.524;13.340;2023-03-01T14:30:51;15.40;36.40
50067;DHT22;35952;52.524;13.340;2023-03-01T14:33:27;15.50;35.70
50067;DHT22;35952;52.524;13.340;2023-03-01T14:35:59;14.80;35.50
50067;DHT22;35952;52.524;13.340;2023-03-01T14:38:45;13.80;37.30
50067;DHT22;35952;52.524;13.340;2023-03-01T14:41:15;13.50;38.30
50067;DHT22;35952;52.524;13.340;2023-03-01T14:43:46;13.80;38.20
50067;DHT22;35952;52.524;13.340;2023-03-01T14:46:21;14.40;38.90
50067;DHT22;35952;52.524;13.340;2023-03-01T14:48:52;15.60;38.20
50067;DHT22;35952;52.524;13.340;2023-03-01T14:51:18;16.10;36.70
50067;DHT22;35952;52.524;13.340;2023-03-01T14:53:44;15.80;36.10
50067;DHT22;35952;52.524;13.340;2023-03-01T14:56:16;15.70;37.50
50067;DHT22;35952;52.524;13.340;2023-03-01T14:58:43;15.40;37.90
50067;DHT22;35952;52.524;13.340;2023-03-01T15:01:15;14.90;37.00
50067;DHT22;35952;52.524;13.340;2023-03-01T15:03:49;14.00;37.80
50067;DHT22;35952;52.524;13.340;2023-03-01T15:06:18;13.30;39.50
50067;DHT22;35952;52.524;13.340;2023-03-01T15:08:49;12.50;39.90
50067;DHT22;35952;52.524;13.340;2023-03-01T15:11:29;11.90;40.90
50067;DHT22;35952;52.524;13.340;2023-03-01T15:13:55;11.30;42.50
50067;DHT22;35952;52.524;13.340;2023-03-01T15:16:26;10.90;43.00
50067;DHT22;35952;52.524;13.340;2023-03-01T15:18:55;10.80;43.10
50067;DHT22;35952;52.524;13.340;2023-03-01T15:21:27;11.00;44.10
50067;DHT22;35952;52.524;13.340;2023-03-01T15:24:33;11.30;43.90
50067;DHT22;35952;52.524;13.340;2023-03-01T15:26:57;11.70;43.90
50067;DHT22;35952;52.524;13.340;2023-03-01T15:29:29;12.20;43.90
50067;DHT22;35952;52.524;13.340;2023-03-01T15:32:20;12.00;43.40
50067;DHT22;35952;52.524;13.340;2023-03-01T15:34:47;11.70;43.00
50067;DHT22;35952;52.524;13.340;2023-03-01T15:37:39;11.80;42.50
50067;DHT22;35952;52.524;13.340;2023-03-01T15:40:22;12.20;42.00
50067;DHT22;35952;52.524;13.340;2023-03-01T15:42:50;12.60;41.40
50067;DHT22;35952;52.524;13.340;2023-03-01T15:47:47;11.80;42.50
50067;DHT22;35952;52.524;13.340;2023-03-01T15:50:27;11.50;42.70
50067;DHT22;35952;52.524;13.340;2023-03-01T15:52:54;10.90;43.40
50067;DHT22;35952;52.524;13.340;2023-03-01T15:55:24;10.30;44.90
50067;DHT22;35952;52.524;13.340;2023-03-01T16:00:30;9.20;47.40
50067;DHT22;35952;52.524;13.340;2023-03-01T16:02:56;8.80;47.90
50067;DHT22;35952;52.524;13.340;2023-03-01T16:05:27;8.50;48.50
50067;DHT22;35952;52.524;13.340;2023-03-01T16:07:53;8.40;49.00
50067;DHT22;35952;52.524;13.340;2023-03-01T16:10:20;8.10;49.30
50067;DHT22;35952;52.524;13.340;2023-03-01T16:12:46;8.00;49.60
50067;DHT22;35952;52.524;13.340;2023-03-01T16:15:19;8.00;49.80
50067;DHT22;35952;52.524;13.340;2023-03-01T16:17:51;7.90;50.60
50067;DHT22;35952;52.524;13.340;2023-03-01T16:20:18;7.80;50.90
50067;DHT22;35952;52.524;13.340;2023-03-01T16:22:44;7.60;51.40
50067;DHT22;35952;52.524;13.340;2023-03-01T16:25:11;7.50;51.50
50067;DHT22;35952;52.524;13.340;2023-03-01T16:27:37;7.40;51.90
50067;DHT22;35952;52.524;13.340;2023-03-01T16:30:05;7.10;52.60
50067;DHT22;35952;52.524;13.340;2023-03-01T16:32:30;6.90;53.30
50067;DHT22;35952;52.524;13.340;2023-03-01T16:34:56;6.70;53.80
50067;DHT22;35952;52.524;13.340;2023-03-01T16:37:21;6.60;54.60
50067;DHT22;35952;52.524;13.340;2023-03-01T16:39:47;6.40;55.10
50067;DHT22;35952;52.524;13.340;2023-03-01T16:42:16;6.40;55.60
50067;DHT22;35952;52.524;13.340;2023-03-01T16:44:42;6.40;56.50
50067;DHT22;35952;52.524;13.340;2023-03-01T16:47:08;6.50;57.00
50067;DHT22;35952;52.524;13.340;2023-03-01T16:49:33;6.50;57.40
50067;DHT22;35952;52.524;13.340;2023-03-01T16:51:59;6.40;58.20
50067;DHT22;35952;52.524;13.340;2023-03-01T16:54:24;6.30;59.30
50067;DHT22;35952;52.524;13.340;2023-03-01T16:56:50;6.40;60.30
50067;DHT22;35952;52.524;13.340;2023-03-01T16:59:16;6.20;62.00
50067;DHT22;35952;52.524;13.340;2023-03-01T17:01:43;6.00;63.30
50067;DHT22;35952;52.524;13.340;2023-03-01T17:04:12;5.90;65.10
50067;DHT22;35952;52.524;13.340;2023-03-01T17:06:38;5.80;66.20
50067;DHT22;35952;52.524;13.340;2023-03-01T17:09:03;5.70;67.60
50067;DHT22;35952;52.524;13.340;2023-03-01T17:11:30;5.70;68.30
50067;DHT22;35952;52.524;13.340;2023-03-01T17:13:56;5.60;69.40
50067;DHT22;35952;52.524;13.340;2023-03-01T17:16:21;5.50;70.40
50067;DHT22;35952;52.524;13.340;2023-03-01T17:18:47;5.50;71.10
50067;DHT22;35952;52.524;13.340;2023-03-01T17:21:13;5.50;71.60
50067;DHT22;35952;52.524;13.340;2023-03-01T17:23:40;5.50;73.20
50067;DHT22;35952;52.524;13.340;2023-03-01T17:26:07;5.40;73.70
50067;DHT22;35952;52.524;13.340;2023-03-01T17:28:34;5.40;74.40
50067;DHT22;35952;52.524;13.340;2023-03-01T17:31:01;5.40;75.70
50067;DHT22;35952;52.524;13.340;2023-03-01T17:33:28;5.30;76.80
50067;DHT22;35952;52.524;13.340;2023-03-01T17:35:57;5.40;77.10
50067;DHT22;35952;52.524;13.340;2023-03-01T17:38:23;5.30;77.80
50067;DHT22;35952;52.524;13.340;2023-03-01T17:40:48;5.30;79.80
50067;DHT22;35952;52.524;13.340;2023-03-01T17:43:16;5.30;81.10